Brownsville, TX

4:07 AM CDT on August 01, 2014 (GMT -0500)
Brownsville-South Padre I International (KBRO) Elev 20 ft | 25.91 °N, 97.42 °W | Change Station

Current weather conditions updated 14 minutes ago

Clear
Clear
80 °F
Feels Like 85 °F
N
10
Wind Variable Wind from SSE

Today is forecast to be nearly the same temperature as yesterday.

Today
High -- | Low -- °F
--% Chance of Precip.
Yesterday
High -- | Low -- °F
Precip. -- in
6:55 AM 8:15 PM
Waxing Crescent, 25% visible
Pressure 29.91 in
Visibility 10.0 miles
Clouds Clear
Heat Index 85 °F
Dew Point 76 °F
Humidity 87%
Rainfall 0.00 in
Snow Depth Not available.
UV 0 out of 12
Pollen 6.00 out of 12
Ozone Good
PM2.5 Moderate
Flu Activity Not available.
METAR KBRO 010853Z 15009KT 10SM CLR 27/24 A2991 RMK AO2 SLP127 T02670244 56014

More Conditions Fewer Conditions

Pressure 29.91 in
Visibility 10.0 miles
Clouds Clear
Heat Index 85 °F
Dew Point 76 °F
Humidity 87%
Rainfall 0.00 in
Snow Depth Not available.
UV 0 out of 12
Pollen 6.00 out of 12
Ozone Good
PM2.5 Moderate
Flu Activity Not available.
METAR KBRO 010853Z 15009KT 10SM CLR 27/24 A2991 RMK AO2 SLP127 T02670244 56014

More Conditions Fewer Conditions

10-Day Weather Forecast

Almanac

Astronomy

Aug. 01, 2014 Rise Set
Actual Time 6:55 AM CDT 8:15 PM CDT
Civil Twilight 6:31 AM CDT 8:40 PM CDT
Nautical Twilight 6:01 AM CDT 9:10 PM CDT
Astronomical Twilight 5:31 AM CDT 9:40 PM CDT
Moon 11:44 AM CDT 11:39 PM CDT
Length of Visible Light 14h 09m
Length of Day
13h 20m
Tomorrow will be 1m 8s shorter.
Waxing Crescent, 25% of the Moon is Illuminated
Today
Waxing Crescent
Aug 3
First Quarter
Aug 10
Full
Aug 17
Last Quarter
Aug 25
New

Today's Extremes

State Highs State Lows

Community

WunderPhotos

Upload Photos

1,739,529 photos uploaded!

Nearby

Air Quality

  Air Quality AQ Index Pollutant
Yesterday Moderate
PM2.5
Yesterday Good
OZONE
Current Moderate
PM2.5
Current Good
OZONE
Friday Good
PM10
Friday Good
OZONE
Saturday Good
PM10
Saturday Good
OZONE
Sunday Good
PM10
Sunday Good
OZONE

Snow Depth

Station Depth Elevation
No new snow has been reported.

Earthquake Activity

City Distance Mag. Time & Date
No recent earthquake activity has been reported nearby.
Minimum magnitude displayed is 2.5.

Coastal Water Temperatures

Place Temperature
Port Isabel, TX 82.0 °F
Baffin Bay Point of Rocks, TX 79.0 °F
South Bird Island, TX 82.9 °F
Malaquite Beach (Corpus Christi), TX 78.1 °F
Packery Channel, TX 86.0 °F

Nearby Weather Stations

Station Location Temp. Heat Index Dew Point Humidity Wind Precip. Elev Updated Type
MesoWest RUSLTN , Olmito, TX 83 °F 81 °F - - North  at  - 0.00 in / hr 35 ft 1:45 AM CDT MADIS
RAWS LAGUNA ATASCOSA TX, Lozano, TX 80 °F 85 °F 75 °F 86% South  at  3 mph 0.00 in / hr 24 ft 3:22 AM CDT MADIS
Treasure Hills, Harlingen, TX 81.1 °F 87 °F 75 °F 82% West  at  5.4 mph 0.00 in / hr 39 ft 4:07 AM CDT Rapid Fire

Show More Stations Show Fewer Stations